Time;durP1;ratioP1;P1;durP2;ratioP2;P2;SDS_P1;SDS_P2;PMS_P1;PMS_P2;Temp;Humidity;BMP_temperature;BMP_pressure;BME280_temperature;BME280_humidity;BME280_pressure;Samples;Min_cycle;Max_cycle;Signal;HPM_P1;HPM_P2
2022/05/24 00:00:24;;;;;;;1.50;1.17;;;22.70;35.30;;;20.91;37.23;99725.81;12246892;19;20026;-77
2022/05/24 00:04:26;;;;;;;1.38;1.27;;;22.60;35.20;;;20.77;37.23;99714.94;12242395;19;20017;-80
2022/05/24 00:08:29;;;;;;;1.35;1.25;;;22.70;35.30;;;20.93;37.36;99729.94;12243750;19;20471;-80
2022/05/24 00:12:31;;;;;;;1.33;1.20;;;22.70;35.20;;;20.94;37.29;99731.59;12242677;19;20363;-80
2022/05/24 00:16:33;;;;;;;1.50;1.30;;;22.70;35.30;;;20.81;37.38;99702.16;12242038;19;20023;-79
2022/05/24 00:20:49;;;;;;;1.40;1.30;;;22.60;35.20;;;20.83;37.55;99699.31;12242513;19;20045;-80
2022/05/24 00:24:51;;;;;;;1.45;1.20;;;22.60;35.30;;;20.54;37.35;99656.53;12242388;19;20015;-79
2022/05/24 00:28:53;;;;;;;1.10;1.00;;;22.60;35.20;;;20.74;37.20;99691.41;12243219;19;20014;-79
2022/05/24 00:32:54;;;;;;;1.52;1.42;;;22.50;35.30;;;20.74;37.48;99693.25;12243221;19;20007;-80
2022/05/24 00:36:56;;;;;;;2.97;1.10;;;22.40;35.30;;;20.75;37.68;99692.25;12240430;19;20045;-80
2022/05/24 00:41:22;;;;;;;1.75;1.48;;;22.60;35.30;;;20.51;37.55;99662.19;12243401;19;20062;-80
2022/05/24 00:45:34;;;;;;;1.27;1.17;;;22.50;35.40;;;20.69;37.64;99695.59;12238630;19;20010;-80
2022/05/24 00:49:46;;;;;;;1.30;1.20;;;22.50;35.50;;;20.69;37.82;99692.94;12242129;19;20011;-80
2022/05/24 00:53:53;;;;;;;3.35;1.60;;;22.40;35.50;;;20.71;37.96;99693.56;12239210;19;20361;-80
2022/05/24 00:58:10;;;;;;;1.38;1.13;;;22.80;35.70;;;20.64;37.94;99693.47;12241747;19;20031;-79
2022/05/24 01:02:12;;;;;;;2.47;1.40;;;22.40;35.50;;;20.43;38.07;99666.72;12242632;19;20058;-80
2022/05/24 01:06:15;;;;;;;1.50;1.40;;;22.30;35.50;;;20.65;37.84;99694.28;12241498;19;20025;-80
2022/05/24 01:10:26;;;;;;;2.83;1.58;;;22.30;35.60;;;20.63;38.11;99696.28;12243658;19;20025;-79
2022/05/24 01:14:29;;;;;;;1.45;1.25;;;22.30;35.60;;;20.48;37.92;99672.31;12238645;19;20012;-79
2022/05/24 01:18:34;;;;;;;1.40;1.10;;;22.30;35.60;;;20.51;37.95;99694.00;12237366;19;20111;-80
2022/05/24 01:23:04;;;;;;;3.30;1.50;;;22.30;35.70;;;20.30;38.01;99652.19;12239659;19;20479;-79
2022/05/24 01:27:05;;;;;;;2.45;1.77;;;22.30;35.80;;;20.45;37.89;99689.41;12240654;19;20011;-79
2022/05/24 01:31:07;;;;;;;1.42;1.33;;;22.10;35.60;;;20.19;37.94;99639.31;12235239;19;20039;-80
2022/05/24 01:39:42;;;;;;;2.15;1.60;;;22.20;35.80;;;20.33;38.35;99673.06;12239951;19;20015;-79
2022/05/24 01:43:50;;;;;;;1.60;1.50;;;22.20;35.80;;;20.46;38.28;99685.75;12235817;19;20002;-79
2022/05/24 01:48:05;;;;;;;1.50;1.23;;;22.10;35.90;;;20.53;38.34;99699.16;12239505;19;20472;-80
2022/05/24 01:52:38;;;;;;;1.33;1.23;;;22.20;36.00;;;20.53;38.59;99699.16;12236949;19;20018;-79
2022/05/24 01:56:59;;;;;;;1.70;1.60;;;22.20;36.00;;;20.43;38.21;99691.41;12233845;19;20031;-79
2022/05/24 02:01:17;;;;;;;2.45;1.30;;;22.20;36.10;;;20.43;38.33;99693.22;12238894;19;20074;-79
2022/05/24 02:05:36;;;;;;;1.70;1.50;;;22.20;36.10;;;20.34;38.30;99680.00;12233783;19;20030;-79
2022/05/24 02:09:44;;;;;;;1.63;1.40;;;22.40;36.30;;;20.23;38.43;99659.19;12238190;19;20010;-79
2022/05/24 02:13:48;;;;;;;2.10;1.23;;;22.10;36.20;;;20.45;38.76;99697.34;12234687;19;20007;-79
2022/05/24 02:18:04;;;;;;;2.60;1.37;;;22.20;36.20;;;20.46;38.67;99688.38;12242384;19;20027;-80
2022/05/24 02:22:14;;;;;;;2.38;1.40;;;22.00;36.30;;;20.34;38.50;99666.75;12248647;19;20010;-80
2022/05/24 02:26:21;;;;;;;1.10;1.08;;;22.20;36.30;;;20.46;38.67;99679.63;12248528;19;20042;-80
2022/05/24 02:30:30;;;;;;;2.42;1.30;;;22.10;36.30;;;20.44;38.73;99671.00;12248301;19;20018;-80
2022/05/24 02:34:31;;;;;;;2.13;1.27;;;22.10;36.30;;;20.61;38.74;99696.47;12245787;19;20495;-79
2022/05/24 02:38:33;;;;;;;1.67;1.50;;;22.30;36.60;;;20.04;38.83;99604.78;12247376;19;20017;-80
2022/05/24 02:42:36;;;;;;;1.58;1.40;;;22.30;36.70;;;20.36;38.85;99660.44;12246026;19;20010;-80
2022/05/24 02:46:42;;;;;;;1.40;1.30;;;22.10;36.80;;;20.40;39.19;99667.06;12246019;19;20364;-80
2022/05/24 02:50:44;;;;;;;1.75;1.30;;;22.30;37.00;;;20.12;39.36;99643.69;12246724;19;20435;-80
2022/05/24 02:54:46;;;;;;;1.85;1.35;;;22.20;37.40;;;20.40;39.44;99701.53;12242433;19;20038;-79
2022/05/24 02:58:48;;;;;;;1.25;1.20;;;22.20;37.60;;;20.34;39.50;99706.53;12246592;19;20002;-79
2022/05/24 03:02:51;;;;;;;3.90;1.60;;;22.10;37.50;;;20.12;39.87;99672.84;12243170;19;20378;-80
2022/05/24 03:11:16;;;;;;;1.58;1.45;;;22.00;38.20;;;20.21;40.14;99697.47;12243939;19;20025;-79
2022/05/24 03:15:18;;;;;;;1.85;1.55;;;22.00;38.10;;;20.09;40.46;99686.41;12243689;19;20038;-80
2022/05/24 03:19:21;;;;;;;1.50;1.42;;;21.90;38.30;;;20.05;40.43;99685.13;12244002;19;20479;-80
2022/05/24 03:23:23;;;;;;;3.40;1.70;;;21.90;38.30;;;20.16;40.63;99710.41;12239591;19;20504;-80
2022/05/24 03:27:24;;;;;;;1.40;1.30;;;21.80;38.50;;;20.15;40.86;99700.81;12242112;19;20021;-80
2022/05/24 03:31:26;;;;;;;1.55;1.33;;;21.80;38.50;;;19.96;40.85;99692.28;12243468;19;20014;-80
2022/05/24 03:35:28;;;;;;;3.92;1.90;;;21.90;39.00;;;19.98;41.53;99711.50;12238334;19;20019;-80
2022/05/24 03:39:33;;;;;;;1.52;1.38;;;21.80;39.20;;;19.85;41.71;99701.41;12244291;19;20013;-80
2022/05/24 03:43:34;;;;;;;2.15;1.77;;;21.80;39.40;;;19.90;41.98;99708.84;12241405;19;20022;-80
2022/05/24 03:47:37;;;;;;;1.58;1.48;;;21.70;40.00;;;19.89;42.14;99717.78;12241824;19;20022;-80
2022/05/24 03:51:39;;;;;;;2.08;1.77;;;21.70;40.10;;;19.82;42.32;99717.66;12242413;19;20014;-81
2022/05/24 03:55:41;;;;;;;1.85;1.75;;;21.60;40.40;;;19.48;42.31;99664.06;12241778;19;20014;-81
2022/05/24 03:59:42;;;;;;;1.60;1.50;;;21.40;40.50;;;19.69;42.66;99709.41;12240932;19;20013;-81
2022/05/24 04:03:44;;;;;;;3.45;1.42;;;21.50;40.90;;;19.68;42.68;99715.69;12239297;19;20043;-81
2022/05/24 04:07:46;;;;;;;2.55;1.90;;;21.30;40.80;;;19.62;42.85;99706.56;12230447;19;20375;-81
2022/05/24 04:11:47;;;;;;;3.00;1.60;;;21.50;41.30;;;19.65;43.06;99710.69;12239894;19;20084;-81
2022/05/24 04:15:49;;;;;;;2.22;1.58;;;21.40;41.30;;;19.68;43.17;99726.28;12239851;19;20014;-81
2022/05/24 04:19:51;;;;;;;3.03;2.00;;;21.40;41.50;;;19.76;43.12;99744.81;12242566;19;20007;-81
2022/05/24 04:23:53;;;;;;;1.80;1.48;;;21.40;41.60;;;19.66;43.45;99728.28;12240584;19;20007;-81
2022/05/24 04:27:54;;;;;;;2.08;1.85;;;21.50;41.90;;;19.60;43.86;99715.66;12240830;19;20049;-81
2022/05/24 04:32:04;;;;;;;2.97;1.95;;;21.50;42.20;;;19.72;43.63;99738.19;12242415;19;20034;-80
2022/05/24 04:36:06;;;;;;;2.42;1.70;;;21.50;42.50;;;19.42;43.92;99690.22;12233787;19;20027;-82
2022/05/24 04:40:09;;;;;;;2.53;1.70;;;21.50;42.70;;;19.74;44.11;99738.00;12235856;19;20385;-82
2022/05/24 04:44:10;;;;;;;2.15;1.63;;;21.60;43.00;;;19.77;44.62;99750.94;12232345;19;20022;-81
2022/05/24 04:48:12;;;;;;;2.95;1.60;;;21.50;43.40;;;19.81;44.60;99742.47;12235851;19;20021;-81
2022/05/24 04:52:17;;;;;;;1.85;1.70;;;21.50;43.50;;;19.84;44.77;99750.09;12236278;19;20373;-81
2022/05/24 04:56:19;;;;;;;2.65;1.88;;;21.60;43.50;;;19.89;44.96;99760.19;12236097;19;20011;-81
2022/05/24 05:00:22;;;;;;;1.92;1.83;;;21.50;43.90;;;19.89;45.19;99765.50;12236581;19;20019;-81
2022/05/24 05:04:24;;;;;;;3.85;1.88;;;21.70;44.30;;;19.84;45.40;99771.28;12232560;19;20007;-80
2022/05/24 05:08:26;;;;;;;2.25;2.05;;;21.70;44.30;;;19.65;45.30;99735.34;12235152;19;20031;-81
2022/05/24 05:12:27;;;;;;;1.98;1.77;;;21.50;44.60;;;19.84;45.95;99779.22;12230954;19;20082;-82
2022/05/24 05:16:29;;;;;;;2.15;1.98;;;21.60;45.10;;;19.62;45.87;99742.81;12223404;19;20026;-80
2022/05/24 05:20:33;;;;;;;2.10;1.90;;;21.60;45.40;;;19.60;46.26;99739.50;12233356;19;20030;-83
2022/05/24 05:24:35;;;;;;;1.85;1.75;;;21.60;45.70;;;19.84;46.63;99787.19;12224018;19;20023;-81
2022/05/24 05:28:36;;;;;;;2.20;1.83;;;21.60;46.30;;;19.91;46.62;99789.19;12227330;19;20089;-81
2022/05/24 05:32:38;;;;;;;2.25;2.05;;;21.60;46.40;;;19.93;46.73;99800.41;12230479;19;20022;-82
2022/05/24 05:36:40;;;;;;;2.17;1.98;;;21.70;46.80;;;19.84;47.01;99795.13;12226099;19;20419;-81
2022/05/24 05:40:42;;;;;;;2.17;2.08;;;21.70;47.00;;;20.04;47.35;99829.25;12209482;19;20038;-81
2022/05/24 05:44:43;;;;;;;2.53;2.10;;;21.50;47.20;;;20.05;47.20;99834.38;12216393;19;20046;-80
2022/05/24 05:48:45;;;;;;;1.77;1.67;;;21.70;47.40;;;20.00;47.52;99835.88;12224505;19;20029;-82
2022/05/24 05:52:47;;;;;;;2.95;2.28;;;21.70;47.50;;;19.92;47.83;99823.44;12227497;19;20356;-79
2022/05/24 05:56:50;;;;;;;3.70;2.00;;;21.90;47.60;;;19.94;48.04;99836.53;12233134;19;20025;-81
2022/05/24 06:00:52;;;;;;;5.43;1.98;;;21.70;47.60;;;19.90;48.16;99838.69;12232221;19;20053;-81
2022/05/24 06:04:54;;;;;;;1.90;1.73;;;21.70;47.70;;;19.65;48.16;99828.06;12231987;19;20015;-84
2022/05/24 06:08:55;;;;;;;1.70;1.60;;;21.70;47.90;;;19.76;48.37;99858.72;12235337;19;20034;-81
2022/05/24 06:12:59;;;;;;;1.88;1.60;;;21.70;48.00;;;19.75;48.43;99877.44;12236666;19;20018;-81
2022/05/24 06:17:01;;;;;;;1.73;1.60;;;21.60;48.50;;;19.70;48.53;99869.16;12235802;19;20026;-83
2022/05/24 06:21:03;;;;;;;2.20;2.00;;;21.60;48.20;;;19.71;48.48;99882.22;12245989;19;20011;-83
2022/05/24 06:25:07;;;;;;;2.10;1.90;;;21.50;48.20;;;19.64;48.79;99879.38;12242428;19;20382;-83
2022/05/24 06:29:08;;;;;;;1.67;1.58;;;21.50;48.10;;;19.56;48.82;99871.44;12242920;19;20082;-81
2022/05/24 06:33:11;;;;;;;3.55;2.08;;;21.50;48.30;;;19.61;48.99;99890.31;12241891;19;20014;-81
2022/05/24 06:37:12;;;;;;;2.35;2.17;;;21.40;48.40;;;19.77;49.22;99923.16;12240627;19;20504;-81
2022/05/24 06:41:14;;;;;;;1.65;1.55;;;21.40;48.60;;;19.66;48.89;99892.53;12242722;19;20011;-81
2022/05/24 06:45:16;;;;;;;3.40;1.85;;;21.40;48.70;;;19.59;48.96;99867.63;12239632;19;20037;-81
2022/05/24 06:49:17;;;;;;;2.00;1.90;;;21.60;48.80;;;19.86;49.49;99919.50;12244533;19;20044;-81
2022/05/24 06:53:18;;;;;;;1.80;1.70;;;21.50;49.00;;;20.01;49.10;99924.97;12242950;19;20045;-81
2022/05/24 06:57:20;;;;;;;7.50;3.08;;;21.60;49.10;;;20.05;49.47;99942.22;12238099;19;20027;-81
2022/05/24 07:05:44;;;;;;;2.08;1.95;;;21.60;48.70;;;19.89;49.74;99909.41;12241070;19;20035;-83
2022/05/24 07:09:48;;;;;;;2.60;1.92;;;21.80;48.90;;;20.10;49.45;99942.56;12240745;19;20361;-83
2022/05/24 07:13:50;;;;;;;4.63;1.85;;;21.80;49.10;;;20.21;49.78;99952.81;12241629;19;20098;-85
2022/05/24 07:17:52;;;;;;;3.15;1.90;;;21.80;49.10;;;20.30;49.84;99957.09;12237321;19;20018;-83
2022/05/24 07:21:53;;;;;;;2.28;1.85;;;21.90;49.00;;;20.22;49.86;99945.69;12242493;19;20018;-84
2022/05/24 07:26:10;;;;;;;2.40;1.90;;;21.80;49.00;;;20.28;50.07;99961.78;12240245;19;20078;-83
2022/05/24 07:30:11;;;;;;;3.90;1.60;;;22.00;49.50;;;20.40;49.79;99964.09;12239850;19;20499;-86
2022/05/24 07:34:13;;;;;;;2.00;1.90;;;22.00;49.00;;;20.31;49.96;99940.22;12237651;19;20022;-81
2022/05/24 07:38:14;;;;;;;2.25;1.98;;;22.10;48.60;;;20.50;49.65;99970.06;12242064;19;20010;-80
2022/05/24 07:46:36;;;;;;;1.58;1.40;;;22.10;48.10;;;20.07;49.59;99924.34;12225876;19;20019;-81
2022/05/24 07:50:37;;;;;;;1.60;1.50;;;22.20;48.10;;;20.47;49.37;99986.31;12211989;19;20362;-81
2022/05/24 07:54:39;;;;;;;2.25;2.05;;;22.20;48.30;;;20.47;49.54;99970.38;12217610;19;20636;-82
2022/05/24 07:58:41;;;;;;;3.40;1.67;;;22.30;48.20;;;20.31;49.31;99961.44;12216781;19;20917;-82
2022/05/24 08:02:42;;;;;;;1.90;1.63;;;22.10;47.90;;;20.66;49.86;100011.69;12214954;19;20630;-81
2022/05/24 08:06:44;;;;;;;2.88;2.22;;;22.30;48.30;;;20.65;49.41;99989.59;12217595;19;20468;-81
2022/05/24 08:10:46;;;;;;;5.03;2.00;;;22.30;48.10;;;20.77;49.67;99987.44;12223961;19;20035;-81
2022/05/24 08:14:47;;;;;;;2.13;1.92;;;22.40;48.50;;;20.81;49.61;99996.72;12221456;19;20362;-81
2022/05/24 08:18:49;;;;;;;4.18;2.08;;;22.50;48.00;;;20.83;49.56;100004.50;12224324;19;20014;-81
2022/05/24 08:22:51;;;;;;;2.08;1.90;;;22.40;48.20;;;20.66;49.64;99977.19;12223175;19;20039;-80
2022/05/24 08:26:52;;;;;;;1.98;1.60;;;22.60;48.00;;;20.75;49.81;99989.44;12223422;19;20018;-80
2022/05/24 08:30:54;;;;;;;2.78;1.80;;;22.60;48.00;;;20.85;49.88;100013.16;12226226;19;20018;-80
2022/05/24 08:34:55;;;;;;;1.77;1.67;;;22.70;47.90;;;20.90;49.85;100019.59;12230642;19;20102;-80
2022/05/24 08:38:57;;;;;;;1.77;1.67;;;22.90;47.80;;;20.88;49.71;100020.75;12230290;19;20609;-81
2022/05/24 08:43:32;;;;;;;1.77;1.67;;;22.70;47.50;;;20.93;50.07;100047.63;12232905;19;20011;-80
2022/05/24 08:52:04;;;;;;;1.50;1.40;;;22.40;47.00;;;20.64;49.72;100034.88;12233945;19;20022;-87
2022/05/24 08:56:20;;;;;;;1.58;1.48;;;22.60;47.20;;;20.81;49.75;100065.72;12231955;19;20019;-78
2022/05/24 09:00:35;;;;;;;1.27;1.25;;;22.50;47.20;;;20.50;49.69;100015.97;12233242;19;20015;-79
2022/05/24 09:04:37;;;;;;;6.40;1.40;;;22.50;46.40;;;20.65;49.15;100049.81;12209594;19;20488;-79
2022/05/24 09:09:07;;;;;;;2.05;1.27;;;22.50;46.30;;;20.55;49.16;100042.03;12220054;19;20011;-80
2022/05/24 09:13:57;;;;;;;1.35;1.17;;;22.40;46.20;;;20.75;49.11;100069.88;12218752;19;20147;-79
2022/05/24 09:18:21;;;;;;;1.35;1.30;;;22.50;46.30;;;20.84;49.07;100070.69;12216746;19;20275;-79
2022/05/24 09:22:23;;;;;;;1.13;0.95;;;22.50;46.30;;;20.95;48.71;100064.19;12222031;19;20741;-79
2022/05/24 09:26:25;;;;;;;0.90;0.90;;;22.60;46.10;;;20.97;48.98;100039.13;12221169;19;20014;-80
2022/05/24 09:30:41;;;;;;;0.80;0.77;;;22.70;45.80;;;21.18;48.75;100051.88;12223223;19;20018;-79
2022/05/24 09:34:43;;;;;;;1.05;0.80;;;23.00;46.20;;;21.12;48.79;100031.31;12216651;19;20018;-80
2022/05/24 09:38:45;;;;;;;0.80;0.80;;;23.00;46.00;;;21.53;48.00;100079.03;12223074;19;20131;-80
2022/05/24 09:42:47;;;;;;;0.80;0.80;;;23.50;45.10;;;21.73;48.25;100091.91;12220186;19;20034;-79
2022/05/24 09:46:48;;;;;;;1.10;1.00;;;23.60;45.40;;;21.71;48.00;100046.91;12220570;19;20503;-80
2022/05/24 09:50:53;;;;;;;0.80;0.80;;;23.40;45.00;;;22.24;48.10;100082.50;12223068;19;20368;-80
2022/05/24 09:54:59;;;;;;;0.90;0.90;;;23.60;44.90;;;22.35;47.67;100069.81;12216236;19;20377;-79
2022/05/24 09:59:07;;;;;;;;;;;23.70;44.50;;;22.63;47.55;100070.06;12210728;19;20015;-79
2022/05/24 10:03:08;;;;;;;0.60;0.60;;;24.00;44.40;;;22.87;47.21;100090.34;12216487;19;19935;-80
2022/05/24 10:07:31;;;;;;;0.55;0.55;;;24.30;44.00;;;23.10;46.91;100101.81;12216712;19;20056;-80
2022/05/24 10:11:55;;;;;;;0.70;0.70;;;24.40;43.40;;;23.21;46.37;100095.22;12213995;19;20030;-78
2022/05/24 10:16:32;;;;;;;0.60;0.60;;;24.60;43.00;;;23.39;46.46;100103.69;12212626;19;20111;-79
2022/05/24 10:20:39;;;;;;;;;;;24.80;43.10;;;23.53;46.30;100088.69;12216975;19;20730;-79
2022/05/24 10:25:06;;;;;;;0.68;0.68;;;25.00;43.00;;;23.76;45.89;100101.94;12212635;19;19998;-78
2022/05/24 10:29:41;;;;;;;0.80;0.80;;;25.20;42.00;;;23.93;45.57;100104.41;12210449;19;20876;-81
2022/05/24 10:38:45;;;;;;;0.90;0.90;;;25.50;42.00;;;24.29;45.25;100088.38;12215802;19;20079;-81
2022/05/24 10:43:23;;;;;;;0.75;0.75;;;25.70;41.80;;;24.48;45.21;100084.28;12225079;19;20622;-83
2022/05/24 10:47:39;;;;;;;0.75;0.75;;;25.90;41.70;;;24.50;44.68;100066.22;12221699;19;20078;-81
2022/05/24 10:51:56;;;;;;;1.23;0.70;;;26.00;41.10;;;24.78;44.64;100095.63;12220861;19;20625;-79
2022/05/24 10:56:06;;;;;;;1.17;0.80;;;26.20;40.90;;;24.71;44.51;100086.75;12220992;19;20050;-80
2022/05/24 11:00:20;;;;;;;0.90;0.68;;;26.30;40.80;;;24.75;44.21;100071.16;12226973;19;20063;-81
2022/05/24 11:04:42;;;;;;;0.80;0.80;;;26.40;40.80;;;24.97;44.50;100083.44;12221632;19;20039;-80
2022/05/24 11:08:54;;;;;;;1.38;0.75;;;26.60;41.30;;;25.15;43.87;100086.50;12223599;19;20027;-79
2022/05/24 11:13:03;;;;;;;0.80;0.80;;;26.60;40.40;;;25.19;43.46;100064.72;12225881;19;20022;-80
2022/05/24 11:17:08;;;;;;;0.70;0.70;;;26.70;40.10;;;25.35;43.49;100080.44;12222384;19;20022;-81
2022/05/24 11:21:28;;;;;;;0.63;0.63;;;27.00;40.10;;;25.45;42.98;100072.88;12224689;19;20022;-80
2022/05/24 11:26:00;;;;;;;1.65;0.90;;;26.90;39.70;;;25.39;43.22;100068.34;12218374;19;20039;-81
2022/05/24 11:30:16;;;;;;;0.80;0.80;;;27.00;39.30;;;25.39;43.00;100065.66;12225968;19;20018;-82
2022/05/24 11:34:34;;;;;;;0.88;0.88;;;27.00;39.20;;;25.56;42.60;100096.38;12222746;19;20487;-81
2022/05/24 11:38:43;;;;;;;1.33;0.65;;;27.10;39.00;;;25.50;42.62;100064.28;12225251;19;20074;-80
2022/05/24 11:42:47;;;;;;;0.75;0.75;;;27.30;39.30;;;25.58;42.52;100059.56;12222216;19;20010;-82
2022/05/24 11:46:49;;;;;;;0.80;0.80;;;27.10;38.90;;;25.63;42.37;100058.13;12226684;19;20014;-79
2022/05/24 11:50:51;;;;;;;0.75;0.75;;;27.40;38.70;;;25.96;42.14;100103.78;12223895;19;20700;-81
2022/05/24 11:54:55;;;;;;;0.80;0.80;;;27.40;38.60;;;25.96;42.03;100109.97;12221389;19;20030;-82
2022/05/24 11:59:01;;;;;;;0.80;0.80;;;27.40;38.40;;;25.87;42.04;100097.81;12224382;19;20018;-81
2022/05/24 12:07:54;;;;;;;0.93;0.93;;;27.50;38.10;;;25.86;42.07;100114.03;12224434;19;20014;-82
2022/05/24 12:12:21;;;;;;;0.85;0.85;;;27.50;38.40;;;25.91;41.78;100120.44;12222280;19;20014;-82
2022/05/24 12:16:40;;;;;;;1.25;1.00;;;27.50;38.30;;;25.81;41.48;100111.91;12223123;19;20030;-81
2022/05/24 12:20:42;;;;;;;2.33;0.90;;;27.70;38.10;;;25.89;41.67;100129.69;12223681;19;20074;-81
2022/05/24 12:24:48;;;;;;;0.95;0.90;;;27.50;38.10;;;25.77;41.22;100113.38;12223179;19;20011;-79
2022/05/24 12:28:55;;;;;;;1.25;0.90;;;27.40;38.00;;;25.80;41.61;100134.34;12224296;19;20139;-80
2022/05/24 12:33:46;;;;;;;2.78;0.88;;;27.40;38.00;;;25.35;41.45;100077.75;12222902;19;20010;-79
2022/05/24 12:37:56;;;;;;;1.10;1.00;;;27.40;37.90;;;25.23;41.47;100065.97;12216016;19;20019;-84
2022/05/24 12:42:01;;;;;;;1.30;1.20;;;27.60;38.20;;;25.54;41.74;100103.78;12219052;19;20021;-80
2022/05/24 12:46:03;;;;;;;1.05;1.02;;;27.30;38.20;;;25.73;41.56;100120.13;12220425;19;20037;-80
2022/05/24 12:50:05;;;;;;;1.30;1.10;;;27.30;38.00;;;25.57;41.14;100075.81;12222637;19;20061;-80
2022/05/24 12:54:25;;;;;;;1.33;1.23;;;27.40;38.30;;;25.98;41.32;100126.66;12220991;19;20078;-81
2022/05/24 12:58:30;;;;;;;1.55;1.38;;;27.50;38.50;;;25.91;41.15;100112.41;12221873;19;20029;-82
2022/05/24 13:02:51;;;;;;;1.30;1.20;;;27.50;38.10;;;25.96;41.03;100136.72;12219916;19;20354;-82
2022/05/24 13:07:35;;;;;;;1.00;1.00;;;27.50;37.90;;;25.89;41.27;100122.47;12215972;19;20053;-80
2022/05/24 13:11:38;;;;;;;1.00;1.00;;;27.50;38.00;;;25.84;41.20;100119.56;12213891;19;20014;-80
2022/05/24 13:15:45;;;;;;;1.40;1.30;;;27.50;37.90;;;25.89;40.87;100135.03;12215575;19;20046;-80
2022/05/24 13:19:57;;;;;;;2.88;1.00;;;27.40;37.70;;;25.74;40.73;100108.41;12216977;19;20487;-80
2022/05/24 13:24:15;;;;;;;1.95;0.90;;;27.40;37.80;;;25.81;41.13;100130.66;12215397;19;20025;-80
2022/05/24 13:28:45;;;;;;;1.30;1.20;;;27.40;38.00;;;25.76;41.20;100119.72;12220249;19;20555;-82
2022/05/24 13:37:11;;;;;;;0.90;0.90;;;27.40;38.10;;;25.79;40.70;100148.78;12216728;19;20031;-80
2022/05/24 13:41:38;;;;;;;1.05;1.05;;;27.40;37.80;;;25.68;41.13;100133.25;12217120;19;20026;-81
2022/05/24 13:45:39;;;;;;;1.20;1.02;;;27.40;37.90;;;25.69;40.91;100142.94;12216818;19;20022;-81
2022/05/24 13:49:46;;;;;;;1.08;0.98;;;27.30;38.00;;;25.69;41.00;100133.06;12216828;19;20361;-80
2022/05/24 13:53:48;;;;;;;0.98;0.82;;;27.30;37.80;;;25.66;40.73;100129.97;12216694;19;20006;-80
2022/05/24 13:58:02;;;;;;;1.30;1.20;;;27.30;37.80;;;25.82;40.59;100145.69;12214720;19;20010;-81
2022/05/24 14:02:14;;;;;;;0.80;0.80;;;27.40;37.90;;;25.94;40.44;100154.00;12219736;19;20467;-81
2022/05/24 14:06:25;;;;;;;1.40;1.00;;;27.30;37.60;;;25.88;40.23;100146.78;12218942;19;20018;-82
2022/05/24 14:10:27;;;;;;;1.20;1.00;;;27.50;37.50;;;25.72;40.14;100135.34;12216585;19;20039;-82
2022/05/24 14:14:32;;;;;;;0.73;0.73;;;27.50;37.30;;;25.69;39.94;100149.13;12195089;19;20017;-81
2022/05/24 14:18:34;;;;;;;0.70;0.70;;;27.40;37.30;;;25.75;40.11;100175.06;12222457;19;20010;-83
2022/05/24 14:22:36;;;;;;;0.70;0.70;;;27.40;37.40;;;25.61;40.32;100162.66;12213463;19;20543;-82
2022/05/24 14:26:54;;;;;;;1.20;1.00;;;27.40;37.60;;;25.66;40.29;100186.13;12220257;19;20023;-82
2022/05/24 14:30:56;;;;;;;0.80;0.80;;;27.40;37.40;;;25.52;40.14;100201.25;12218484;19;20026;-81
2022/05/24 14:34:58;;;;;;;0.77;0.77;;;27.20;37.40;;;25.05;40.50;100147.41;12216210;19;20621;-80
2022/05/24 14:39:00;;;;;;;1.20;1.00;;;27.20;37.50;;;25.18;40.15;100194.84;12218864;19;20036;-80
2022/05/24 14:43:01;;;;;;;1.05;0.98;;;27.10;37.50;;;25.09;40.65;100252.09;12220748;19;20026;-82
2022/05/24 14:47:03;;;;;;;1.55;1.40;;;26.80;37.90;;;24.62;41.18;100242.75;12225740;19;20019;-82
2022/05/24 14:51:06;;;;;;;3.28;1.48;;;26.80;38.40;;;24.34;41.61;100283.47;12230175;19;20010;-83
2022/05/24 14:55:19;;;;;;;1.10;1.10;;;26.40;39.20;;;23.78;42.78;100273.22;12225803;19;20030;-83
2022/05/24 14:59:25;;;;;;;1.40;1.17;;;26.10;39.70;;;23.26;42.59;100244.69;12229207;19;20014;-83
2022/05/24 15:03:26;;;;;;;;;;;25.60;39.70;;;23.24;42.41;100293.84;12222891;19;20924;-83
2022/05/24 15:16:08;;;;;;;0.70;0.70;;;24.80;40.40;;;22.05;43.88;100304.47;12240148;19;20019;-85
2022/05/24 15:20:19;;;;;;;0.75;0.75;;;24.20;40.30;;;22.00;44.15;100324.59;12239872;19;20042;-84
2022/05/24 15:24:28;;;;;;;0.70;0.70;;;24.10;40.90;;;21.87;44.36;100325.97;12236692;19;20014;-83
2022/05/24 15:28:36;;;;;;;0.70;0.70;;;23.90;41.50;;;21.66;44.55;100299.06;12235208;19;20038;-84
2022/05/24 15:32:37;;;;;;;0.68;0.68;;;23.70;41.50;;;21.88;43.99;100338.25;12237862;19;20010;-83
2022/05/24 15:36:40;;;;;;;0.90;0.90;;;23.60;41.40;;;21.51;44.04;100282.94;12236709;19;20014;-84
2022/05/24 15:40:42;;;;;;;0.75;0.75;;;23.60;41.90;;;21.86;44.04;100348.22;12240944;19;20010;-85
2022/05/24 15:44:44;;;;;;;0.70;0.63;;;23.60;41.30;;;21.25;44.30;100263.66;12237051;19;20413;-85
2022/05/24 15:48:50;;;;;;;0.40;0.40;;;23.50;41.10;;;21.78;43.79;100352.72;12237492;19;20021;-85
2022/05/24 15:52:52;;;;;;;0.70;0.60;;;23.50;40.90;;;21.69;44.02;100359.03;12238659;19;20086;-85
2022/05/24 15:56:54;;;;;;;0.70;0.70;;;23.40;40.80;;;21.57;44.17;100340.72;12236103;19;20013;-85
2022/05/24 16:00:56;;;;;;;0.65;0.65;;;23.40;41.00;;;21.58;43.79;100353.03;12241061;19;20018;-84
2022/05/24 16:13:38;;;;;;;0.60;0.60;;;23.30;40.60;;;21.57;43.92;100362.00;12222198;19;20019;-85
2022/05/24 16:17:41;;;;;;;0.68;0.60;;;23.30;40.40;;;21.58;43.90;100370.81;12220720;19;20098;-85
2022/05/24 16:21:43;;;;;;;0.70;0.70;;;23.20;40.50;;;21.63;43.51;100379.13;12225274;19;20765;-86
2022/05/24 16:25:44;;;;;;;0.65;0.65;;;23.30;40.20;;;21.58;43.61;100368.16;12225743;19;20010;-84
2022/05/24 16:29:45;;;;;;;0.85;0.80;;;23.40;40.30;;;21.68;43.51;100376.78;12225182;19;20106;-83
2022/05/24 16:33:48;;;;;;;0.73;0.73;;;23.40;40.60;;;21.87;43.73;100383.59;12217458;19;20456;-83
2022/05/24 16:37:49;;;;;;;0.85;0.60;;;23.50;40.50;;;21.88;43.16;100366.66;12220725;19;20077;-82
2022/05/24 16:41:51;;;;;;;1.20;0.90;;;23.50;40.50;;;22.13;43.48;100394.06;12220147;19;20333;-83
2022/05/24 16:45:53;;;;;;;1.20;1.10;;;23.60;40.60;;;22.12;43.33;100376.44;12222689;19;20014;-83
2022/05/24 16:49:54;;;;;;;0.93;0.90;;;23.70;40.60;;;22.07;43.34;100368.16;12216952;19;20018;-83
2022/05/24 16:53:58;;;;;;;0.95;0.88;;;23.80;40.40;;;22.33;43.33;100404.38;12220649;19;20023;-84
2022/05/24 17:02:20;;;;;;;0.75;0.75;;;24.00;40.30;;;22.40;43.10;100422.16;12225974;19;20321;-84
2022/05/24 17:06:21;;;;;;;1.38;0.70;;;23.90;40.20;;;22.11;42.99;100377.44;12222308;19;20026;-83
2022/05/24 17:10:23;;;;;;;0.60;0.60;;;23.80;39.60;;;22.33;42.90;100415.84;12220756;19;20015;-83
2022/05/24 17:14:35;;;;;;;0.55;0.55;;;24.20;39.60;;;22.24;43.03;100406.22;12220328;19;20051;-83
2022/05/24 17:18:37;;;;;;;0.80;0.80;;;24.00;39.40;;;22.43;42.72;100437.78;12221462;19;20018;-83
2022/05/24 17:22:39;;;;;;;0.77;0.77;;;24.00;39.40;;;22.35;42.91;100421.00;12220475;19;20046;-84
2022/05/24 17:26:40;;;;;;;0.63;0.63;;;24.00;39.30;;;22.33;43.01;100437.13;12219106;19;20014;-83
2022/05/24 17:30:42;;;;;;;0.70;0.70;;;23.80;39.20;;;22.28;43.05;100428.84;12218355;19;20024;-84
2022/05/24 17:34:43;;;;;;;1.45;0.65;;;24.00;39.50;;;22.27;42.68;100440.47;12218172;19;20039;-83
2022/05/24 17:38:45;;;;;;;2.15;0.60;;;24.00;39.30;;;22.17;42.51;100434.44;12219440;19;21201;-80
2022/05/24 17:42:47;;;;;;;0.50;0.50;;;24.00;39.30;;;22.29;42.98;100451.78;12218646;19;20010;-83
2022/05/24 17:46:48;;;;;;;0.57;0.57;;;24.00;39.20;;;22.25;42.50;100459.25;12220865;19;20507;-82
2022/05/24 17:50:51;;;;;;;0.75;0.57;;;24.00;39.10;;;22.17;42.83;100447.75;12234217;19;20018;-83
2022/05/24 17:54:53;;;;;;;0.50;0.50;;;24.00;39.00;;;22.07;42.70;100453.25;12230049;19;20531;-83
2022/05/24 17:58:54;;;;;;;0.65;0.60;;;23.90;39.00;;;22.14;42.88;100464.88;12234560;19;20042;-83